Time;durP1;ratioP1;P1;durP2;ratioP2;P2;SDS_P1;SDS_P2;PMS_P1;PMS_P2;Temp;Humidity;BMP_temperature;BMP_pressure;BME280_temperature;BME280_humidity;BME280_pressure;Samples;Min_cycle;Max_cycle;Signal;HPM_P1;HPM_P2
2022/10/03 00:01:44;;;;;;;14.00;8.07;;;11.70;99.90;;;;;;5010468;28;20188;-79
2022/10/03 00:04:28;;;;;;;12.05;8.57;;;11.60;99.90;;;;;;5010236;28;20661;-79
2022/10/03 00:06:57;;;;;;;19.65;8.80;;;11.50;99.90;;;;;;4995373;28;20232;-81
2022/10/03 00:09:58;;;;;;;20.88;9.02;;;11.30;99.90;;;;;;4995438;28;20707;-80
2022/10/03 00:12:53;;;;;;;18.00;8.25;;;11.30;99.90;;;;;;4995087;28;20173;-79
2022/10/03 00:15:43;;;;;;;23.83;8.82;;;11.50;99.90;;;;;;4995108;28;20196;-83
2022/10/03 00:18:12;;;;;;;13.40;8.23;;;11.70;99.90;;;;;;4995651;28;20184;-80
2022/10/03 00:20:48;;;;;;;10.60;7.97;;;11.70;99.90;;;;;;4995419;28;20169;-80
2022/10/03 00:23:26;;;;;;;14.55;8.23;;;11.60;99.90;;;;;;4993998;28;20181;-81
2022/10/03 00:26:26;;;;;;;9.70;7.55;;;11.60;99.90;;;;;;4995046;28;20313;-81
2022/10/03 00:29:04;;;;;;;10.15;7.35;;;11.70;99.90;;;;;;4993321;28;20978;-80
2022/10/03 00:31:48;;;;;;;17.77;8.43;;;11.40;99.90;;;;;;4995246;28;20173;-79
2022/10/03 00:34:25;;;;;;;11.85;8.15;;;11.50;99.90;;;;;;4994768;28;20259;-78
2022/10/03 00:37:28;;;;;;;14.80;7.70;;;11.40;99.90;;;;;;4994435;28;20175;-78
2022/10/03 00:40:12;;;;;;;18.40;8.55;;;11.30;99.90;;;;;;4994468;28;20200;-79
2022/10/03 00:42:56;;;;;;;14.40;8.77;;;11.20;99.90;;;;;;4994487;28;20196;-80
2022/10/03 00:45:40;;;;;;;32.03;10.15;;;11.20;99.90;;;;;;4994300;28;20213;-80
2022/10/03 00:48:27;;;;;;;15.60;9.07;;;11.10;99.90;;;;;;4993674;28;20205;-80
2022/10/03 00:51:20;;;;;;;13.50;9.73;;;11.10;99.90;;;;;;4994582;28;20714;-79
2022/10/03 00:54:08;;;;;;;11.60;8.02;;;11.20;99.90;;;;;;4994480;28;20188;-79
2022/10/03 00:56:55;;;;;;;22.08;9.05;;;11.10;99.90;;;;;;4995125;28;20169;-78
2022/10/03 00:59:45;;;;;;;11.80;8.70;;;11.00;99.90;;;;;;4994481;28;20185;-78
2022/10/03 01:02:45;;;;;;;13.77;8.73;;;11.10;99.90;;;;;;4994733;28;20220;-79
2022/10/03 01:05:46;;;;;;;11.68;9.05;;;11.20;99.90;;;;;;4994659;28;20220;-78
2022/10/03 01:08:26;;;;;;;13.00;7.18;;;11.20;99.90;;;;;;4943933;28;20193;-79
2022/10/03 01:11:31;;;;;;;15.95;8.30;;;11.20;99.90;;;;;;4994978;28;20211;-80
2022/10/03 01:14:11;;;;;;;14.35;9.82;;;11.00;99.90;;;;;;4993202;28;20177;-78
2022/10/03 01:16:41;;;;;;;9.23;7.47;;;10.90;99.90;;;;;;4994698;28;20224;-78
2022/10/03 01:19:31;;;;;;;15.65;7.85;;;11.00;99.90;;;;;;4994299;28;20173;-79
2022/10/03 01:22:24;;;;;;;14.80;8.02;;;11.10;99.90;;;;;;5008990;28;20640;-78
2022/10/03 01:25:13;;;;;;;9.00;6.80;;;11.10;99.90;;;;;;4993931;28;20236;-79
2022/10/03 01:31:09;;;;;;;17.83;7.13;;;11.30;99.90;;;;;;4994588;28;20686;-79
2022/10/03 01:33:43;;;;;;;13.70;7.72;;;11.10;99.90;;;;;;4993872;28;20165;-79
2022/10/03 01:36:11;;;;;;;11.18;6.88;;;10.90;99.90;;;;;;4993847;28;20204;-80
2022/10/03 01:38:59;;;;;;;10.88;7.30;;;10.70;99.90;;;;;;4993666;28;20667;-80
2022/10/03 01:41:57;;;;;;;8.63;6.65;;;10.80;99.90;;;;;;4993428;28;20276;-79
2022/10/03 01:44:36;;;;;;;10.70;6.22;;;10.90;99.90;;;;;;4993389;28;20288;-80
2022/10/03 01:47:08;;;;;;;17.13;7.38;;;10.90;99.90;;;;;;4993617;28;20197;-80
2022/10/03 01:49:59;;;;;;;13.88;7.65;;;10.80;99.90;;;;;;5008661;28;20264;-81
2022/10/03 01:52:47;;;;;;;19.52;7.43;;;10.80;99.90;;;;;;4992999;28;20257;-81
2022/10/03 01:55:22;;;;;;;14.25;7.78;;;10.80;99.90;;;;;;4993226;28;20189;-80
2022/10/03 01:58:16;;;;;;;7.53;6.72;;;10.70;99.90;;;;;;4993300;28;20271;-78
2022/10/03 02:01:20;;;;;;;8.07;6.60;;;10.60;99.90;;;;;;4993343;28;20177;-79
2022/10/03 02:03:55;;;;;;;11.00;5.95;;;10.70;99.90;;;;;;4962994;28;20199;-80
2022/10/03 02:06:35;;;;;;;11.13;6.57;;;10.70;99.90;;;;;;4993213;28;20208;-81
2022/10/03 02:09:10;;;;;;;18.00;7.90;;;10.70;99.90;;;;;;4993450;28;20176;-80
2022/10/03 02:11:43;;;;;;;14.85;6.25;;;10.80;99.90;;;;;;4992785;28;20173;-80
2022/10/03 02:14:32;;;;;;;11.02;6.30;;;10.70;99.90;;;;;;4993014;28;20175;-78
2022/10/03 02:17:19;;;;;;;9.02;6.75;;;10.60;99.90;;;;;;4993157;28;20173;-80
2022/10/03 02:19:59;;;;;;;15.43;6.25;;;10.60;99.90;;;;;;4993005;28;20258;-79
2022/10/03 02:22:29;;;;;;;14.82;6.35;;;10.60;99.90;;;;;;4992848;28;20248;-79
2022/10/03 02:25:24;;;;;;;10.68;6.93;;;10.70;99.90;;;;;;4992788;28;20293;-79
2022/10/03 02:28:01;;;;;;;14.68;7.50;;;10.70;99.90;;;;;;4992980;28;20173;-79
2022/10/03 02:30:37;;;;;;;10.52;5.90;;;10.70;99.90;;;;;;4993052;28;20172;-79
2022/10/03 02:33:14;;;;;;;8.10;5.95;;;10.50;99.90;;;;;;4993117;28;20192;-78
2022/10/03 02:36:10;;;;;;;10.73;6.53;;;10.40;99.90;;;;;;4992786;28;20196;-80
2022/10/03 02:39:00;;;;;;;13.50;7.03;;;10.30;99.90;;;;;;4992877;28;20204;-80
2022/10/03 02:41:38;;;;;;;7.35;6.43;;;10.20;99.90;;;;;;4992852;28;20173;-79
2022/10/03 02:44:49;;;;;;;15.02;6.90;;;10.40;99.90;;;;;;4992739;28;20176;-79
2022/10/03 02:47:35;;;;;;;9.20;5.45;;;10.60;99.90;;;;;;4992812;28;20201;-79
2022/10/03 02:50:29;;;;;;;10.25;6.45;;;10.60;99.90;;;;;;4992672;28;20181;-79
2022/10/03 02:53:24;;;;;;;18.85;6.13;;;10.60;99.90;;;;;;4992519;28;20260;-80
2022/10/03 02:56:37;;;;;;;14.15;5.93;;;10.50;99.90;;;;;;4992988;28;20185;-79
2022/10/03 02:59:41;;;;;;;9.88;5.68;;;10.30;99.90;;;;;;4940298;28;20199;-79
2022/10/03 03:02:45;;;;;;;8.45;5.95;;;10.20;99.90;;;;;;4965369;28;20711;-80
2022/10/03 03:05:23;;;;;;;11.50;6.20;;;10.20;99.90;;;;;;5008376;28;20232;-79
2022/10/03 03:08:32;;;;;;;10.95;5.90;;;10.00;99.90;;;;;;4993537;28;20224;-79
2022/10/03 03:11:18;;;;;;;20.67;6.95;;;10.10;99.90;;;;;;5006131;28;20178;-79
2022/10/03 03:14:07;;;;;;;9.90;6.00;;;10.20;99.90;;;;;;5008527;28;20165;-80
2022/10/03 03:16:53;;;;;;;10.20;5.75;;;10.10;99.90;;;;;;5024004;28;20538;-79
2022/10/03 03:19:25;;;;;;;11.18;6.75;;;10.20;99.90;;;;;;5006045;28;20165;-79
2022/10/03 03:22:15;;;;;;;10.13;6.20;;;10.10;99.90;;;;;;5006673;28;20173;-80
2022/10/03 03:24:48;;;;;;;9.45;6.18;;;10.10;99.90;;;;;;5027392;28;20268;-80
2022/10/03 03:27:52;;;;;;;11.45;6.05;;;10.20;99.90;;;;;;5009399;28;20168;-79
2022/10/03 03:30:21;;;;;;;7.28;5.95;;;10.10;99.90;;;;;;4942239;29;20337;-80
2022/10/03 03:33:12;;;;;;;6.15;5.50;;;10.30;99.90;;;;;;4982597;28;20235;-78
2022/10/03 03:36:09;;;;;;;11.55;6.60;;;10.40;99.90;;;;;;4999203;28;20185;-78
2022/10/03 03:38:42;;;;;;;8.68;5.75;;;10.20;99.90;;;;;;4999799;28;20210;-79
2022/10/03 03:41:52;;;;;;;7.18;5.57;;;10.10;99.90;;;;;;4999284;28;20667;-77
2022/10/03 03:44:28;;;;;;;13.98;5.57;;;10.00;99.90;;;;;;4967474;28;20209;-78
2022/10/03 03:47:27;;;;;;;12.25;5.63;;;10.20;99.90;;;;;;4995327;28;20172;-78
2022/10/03 03:50:30;;;;;;;7.75;4.97;;;10.20;99.90;;;;;;4995479;28;20169;-78
2022/10/03 03:53:08;;;;;;;8.05;5.72;;;10.10;99.90;;;;;;4996157;28;20212;-78
2022/10/03 03:55:47;;;;;;;13.68;6.28;;;10.10;99.90;;;;;;4996811;28;20192;-79
2022/10/03 03:58:39;;;;;;;10.65;6.32;;;10.10;99.90;;;;;;4996027;28;20165;-79
2022/10/03 04:01:26;;;;;;;8.98;5.20;;;10.30;99.90;;;;;;4994314;28;20985;-79
2022/10/03 04:04:11;;;;;;;9.65;6.53;;;10.40;99.90;;;;;;4995540;28;20181;-80
2022/10/03 04:06:50;;;;;;;11.82;6.63;;;10.40;99.90;;;;;;4995259;28;20200;-79
2022/10/03 04:09:44;;;;;;;9.13;6.28;;;10.40;99.90;;;;;;4994927;28;20169;-78
2022/10/03 04:12:41;;;;;;;11.65;6.97;;;10.40;99.90;;;;;;4994912;28;20173;-78
2022/10/03 04:15:46;;;;;;;8.95;5.90;;;10.50;99.90;;;;;;4994862;28;20248;-79
2022/10/03 04:21:29;;;;;;;6.97;5.63;;;10.20;99.90;;;;;;4995322;28;20324;-78
2022/10/03 04:23:58;;;;;;;6.15;5.28;;;10.00;99.90;;;;;;4995136;28;20196;-79
2022/10/03 04:26:45;;;;;;;11.85;5.30;;;9.80;99.90;;;;;;4994608;28;20550;-78
2022/10/03 04:29:22;;;;;;;9.95;6.60;;;9.90;99.90;;;;;;4994579;28;20176;-79
2022/10/03 04:32:08;;;;;;;6.97;5.13;;;9.90;99.90;;;;;;4994943;28;20243;-78
2022/10/03 04:34:58;;;;;;;5.85;5.30;;;9.90;99.90;;;;;;4994390;28;20235;-78
2022/10/03 04:37:46;;;;;;;8.43;5.78;;;10.10;99.90;;;;;;4994765;28;20165;-79
2022/10/03 04:40:44;;;;;;;9.93;6.05;;;9.90;99.90;;;;;;4993661;28;20181;-79
2022/10/03 04:43:23;;;;;;;19.73;6.25;;;10.00;99.90;;;;;;4994784;28;20169;-79
2022/10/03 04:46:28;;;;;;;15.45;5.88;;;10.10;99.90;;;;;;4994433;28;20212;-79
2022/10/03 04:49:13;;;;;;;10.13;6.35;;;10.10;99.90;;;;;;4994641;28;20223;-82
2022/10/03 04:52:04;;;;;;;9.25;5.70;;;10.00;99.90;;;;;;4994552;28;20250;-79
2022/10/03 04:55:01;;;;;;;10.40;6.20;;;10.10;99.90;;;;;;4993920;28;20208;-79
2022/10/03 04:57:51;;;;;;;9.90;6.38;;;10.30;99.90;;;;;;4994262;28;20248;-79
2022/10/03 05:00:24;;;;;;;10.85;5.88;;;10.40;99.90;;;;;;4994444;28;20177;-79
2022/10/03 05:03:03;;;;;;;15.82;6.35;;;10.10;99.90;;;;;;4994447;28;20193;-79
2022/10/03 05:05:50;;;;;;;8.80;6.20;;;10.10;99.90;;;;;;4994509;28;20770;-87
2022/10/03 05:08:29;;;;;;;9.75;6.30;;;10.30;99.90;;;;;;4992883;28;20585;-80
2022/10/03 05:11:21;;;;;;;6.97;5.50;;;10.40;99.90;;;;;;4993908;28;20243;-80
2022/10/03 05:13:55;;;;;;;6.35;5.65;;;10.50;99.90;;;;;;5008931;28;20201;-79
2022/10/03 05:17:03;;;;;;;12.50;6.38;;;10.40;99.90;;;;;;4994110;28;20190;-79
2022/10/03 05:19:39;;;;;;;12.70;6.80;;;10.20;99.90;;;;;;5009122;28;20165;-79
2022/10/03 05:22:31;;;;;;;10.05;5.65;;;10.20;99.90;;;;;;4993627;28;20652;-83
2022/10/03 05:25:06;;;;;;;7.18;6.50;;;10.00;99.90;;;;;;4985730;28;20217;-79
2022/10/03 05:27:44;;;;;;;11.25;5.50;;;10.20;99.90;;;;;;4994272;28;20215;-80
2022/10/03 05:30:38;;;;;;;12.38;6.47;;;10.30;99.90;;;;;;4994999;28;20174;-79
2022/10/03 05:33:19;;;;;;;10.07;5.28;;;10.30;99.90;;;;;;4990592;28;20200;-80
2022/10/03 05:36:06;;;;;;;9.15;5.68;;;10.20;99.90;;;;;;4999872;28;20205;-82
2022/10/03 05:39:07;;;;;;;10.68;6.00;;;10.20;99.90;;;;;;4999529;28;20175;-81
2022/10/03 05:41:36;;;;;;;9.77;5.68;;;10.10;99.90;;;;;;4928422;28;20594;-80
2022/10/03 05:44:17;;;;;;;13.55;6.18;;;10.10;99.90;;;;;;4992924;28;20170;-80
2022/10/03 05:47:01;;;;;;;7.25;5.05;;;10.00;99.90;;;;;;4993808;28;20263;-80
2022/10/03 05:49:48;;;;;;;8.20;4.88;;;10.10;99.90;;;;;;4995280;28;20173;-79
2022/10/03 05:52:47;;;;;;;16.88;7.45;;;10.00;99.90;;;;;;4994295;28;20211;-81
2022/10/03 05:55:27;;;;;;;10.70;6.13;;;10.20;99.90;;;;;;4993855;28;20200;-79
2022/10/03 05:58:04;;;;;;;9.18;6.53;;;10.40;99.90;;;;;;4994411;28;20165;-84
2022/10/03 06:00:53;;;;;;;11.88;6.30;;;10.30;99.90;;;;;;4993974;28;20252;-79
2022/10/03 06:03:46;;;;;;;7.60;6.30;;;10.20;99.90;;;;;;4993108;28;20171;-81
2022/10/03 06:06:24;;;;;;;7.97;5.95;;;10.30;99.90;;;;;;4992663;28;20213;-80
2022/10/03 06:09:23;;;;;;;6.95;6.07;;;10.40;99.90;;;;;;4993079;28;20209;-80
2022/10/03 06:12:06;;;;;;;13.52;5.88;;;10.30;99.90;;;;;;4994091;28;20165;-80
2022/10/03 06:15:05;;;;;;;9.85;6.18;;;10.30;99.90;;;;;;4993042;28;20196;-79
2022/10/03 06:17:53;;;;;;;9.40;5.30;;;10.20;99.90;;;;;;4993336;28;20170;-80
2022/10/03 06:20:56;;;;;;;6.80;6.13;;;10.30;99.90;;;;;;4993522;28;20165;-79
2022/10/03 06:24:01;;;;;;;10.23;6.32;;;10.50;99.90;;;;;;5008427;28;20545;-79
2022/10/03 06:26:41;;;;;;;14.95;6.60;;;10.50;99.90;;;;;;4962052;28;20721;-80
2022/10/03 06:29:25;;;;;;;6.88;6.20;;;10.50;99.90;;;;;;5008434;28;20179;-82
2022/10/03 06:31:56;;;;;;;10.77;6.60;;;10.70;99.90;;;;;;5008429;28;20183;-84
2022/10/03 06:34:45;;;;;;;14.93;5.78;;;10.90;99.90;;;;;;4993191;28;20189;-83
2022/10/03 06:37:42;;;;;;;8.55;6.40;;;10.90;99.90;;;;;;4991760;28;20180;-83
2022/10/03 06:40:41;;;;;;;7.47;5.78;;;10.90;99.90;;;;;;4992461;28;20579;-85
2022/10/03 06:43:18;;;;;;;7.43;6.05;;;10.90;99.90;;;;;;5009654;28;20245;-87
2022/10/03 06:46:38;;;;;;;8.75;6.38;;;10.70;99.90;;;;;;4993832;28;20216;-86
2022/10/03 06:49:12;;;;;;;10.85;6.60;;;11.00;99.90;;;;;;4932440;29;20299;-79
2022/10/03 06:52:08;;;;;;;9.48;6.13;;;11.10;99.90;;;;;;4991908;28;20271;-84
2022/10/03 06:55:27;;;;;;;13.85;6.60;;;11.00;99.90;;;;;;4994964;28;20624;-82
2022/10/03 06:57:59;;;;;;;11.73;7.57;;;10.90;99.90;;;;;;5015002;28;20178;-84
2022/10/03 07:01:12;;;;;;;14.55;8.93;;;10.90;99.90;;;;;;4998154;28;20272;-80
2022/10/03 07:04:11;;;;;;;16.63;7.32;;;10.70;99.90;;;;;;4969466;28;20185;-80
2022/10/03 07:06:58;;;;;;;11.93;7.30;;;10.80;99.90;;;;;;4996636;28;20185;-84
2022/10/03 07:09:52;;;;;;;12.32;7.10;;;10.80;99.90;;;;;;4996377;28;20165;-79
2022/10/03 07:12:35;;;;;;;9.60;6.88;;;10.90;99.90;;;;;;4996520;28;20172;-80
2022/10/03 07:15:06;;;;;;;9.25;6.85;;;10.90;99.90;;;;;;4992361;28;20202;-80
2022/10/03 07:17:57;;;;;;;12.02;6.65;;;11.00;99.90;;;;;;5011096;28;20185;-78
2022/10/03 07:20:22;;;;;;;16.42;6.80;;;10.90;99.90;;;;;;4995706;28;20159;-82
2022/10/03 07:23:30;;;;;;;8.77;6.57;;;10.80;99.90;;;;;;4995995;28;20184;-80
2022/10/03 07:26:28;;;;;;;9.93;6.65;;;10.80;99.90;;;;;;5010580;28;20217;-85
2022/10/03 07:29:16;;;;;;;7.35;6.65;;;10.80;99.90;;;;;;4995376;28;20169;-84
2022/10/03 07:31:58;;;;;;;7.50;6.75;;;10.90;99.90;;;;;;5011956;28;20209;-86
2022/10/03 07:35:01;;;;;;;9.13;6.22;;;11.10;99.90;;;;;;5005683;28;21149;-88
2022/10/03 07:40:26;;;;;;;12.50;6.95;;;11.20;99.90;;;;;;4996115;28;20168;-86
2022/10/03 07:43:10;;;;;;;8.05;7.22;;;11.30;99.90;;;;;;5010717;28;20177;-80
2022/10/03 07:45:44;;;;;;;10.38;7.35;;;11.50;99.90;;;;;;4994666;28;20232;-80
2022/10/03 07:48:44;;;;;;;7.18;6.60;;;11.70;99.90;;;;;;4989367;28;20177;-84
2022/10/03 07:51:36;;;;;;;9.38;7.72;;;12.00;99.90;;;;;;4990499;28;20192;-80
2022/10/03 07:54:24;;;;;;;8.95;7.90;;;12.30;99.90;;;;;;4987312;28;20208;-80
2022/10/03 07:56:56;;;;;;;15.55;9.95;;;12.50;99.90;;;;;;4993845;28;20165;-80
2022/10/03 07:59:42;;;;;;;10.63;9.02;;;12.90;99.90;;;;;;4994659;28;20212;-79
2022/10/03 08:02:52;;;;;;;10.85;8.57;;;12.90;99.90;;;;;;4997150;28;20644;-80
2022/10/03 08:05:24;;;;;;;13.60;8.65;;;13.00;99.90;;;;;;4966798;28;20236;-79
2022/10/03 08:08:07;;;;;;;9.75;7.93;;;13.00;99.90;;;;;;4994075;28;20215;-79
2022/10/03 08:11:11;;;;;;;7.55;6.85;;;12.80;99.90;;;;;;4993924;28;20180;-81
2022/10/03 08:14:15;;;;;;;10.60;6.32;;;13.00;99.90;;;;;;5001222;28;20292;-80
2022/10/03 08:17:08;;;;;;;10.00;6.75;;;13.30;99.90;;;;;;5014064;28;20244;-81
2022/10/03 08:19:52;;;;;;;10.65;6.78;;;13.50;99.90;;;;;;5022821;28;20544;-79
2022/10/03 08:22:35;;;;;;;16.42;6.53;;;13.80;99.90;;;;;;4995048;28;20655;-84
2022/10/03 08:25:43;;;;;;;9.68;5.95;;;13.80;99.90;;;;;;5009762;28;20212;-84
2022/10/03 08:28:32;;;;;;;8.40;6.50;;;13.90;99.90;;;;;;5009330;28;20177;-84
2022/10/03 08:31:13;;;;;;;8.27;5.80;;;14.00;99.90;;;;;;5009536;28;20169;-78
2022/10/03 08:33:55;;;;;;;10.68;5.72;;;14.10;99.90;;;;;;4994452;28;20173;-84
2022/10/03 08:36:49;;;;;;;13.10;6.85;;;14.30;99.90;;;;;;4994891;28;20299;-84
2022/10/03 08:39:58;;;;;;;10.75;6.03;;;14.40;99.90;;;;;;4993617;28;20235;-84
2022/10/03 08:43:02;;;;;;;12.00;6.18;;;14.50;99.90;;;;;;5007543;28;20213;-84
2022/10/03 08:45:27;;;;;;;6.43;5.75;;;14.50;99.90;;;;;;4992930;28;20205;-83
2022/10/03 08:48:17;;;;;;;13.30;6.00;;;14.50;99.90;;;;;;4994141;28;20207;-83
2022/10/03 08:51:18;;;;;;;12.90;5.68;;;14.60;99.90;;;;;;4993199;28;20181;-84
2022/10/03 08:54:11;;;;;;;10.77;5.30;;;14.70;99.90;;;;;;4990685;28;20631;-85
2022/10/03 08:56:56;;;;;;;8.13;5.22;;;14.80;99.90;;;;;;4994232;28;20180;-84
2022/10/03 08:59:32;;;;;;;15.05;6.20;;;14.80;99.90;;;;;;4994904;28;21041;-83
2022/10/03 09:02:21;;;;;;;15.40;6.68;;;14.90;99.90;;;;;;4993498;28;20177;-84
2022/10/03 09:04:56;;;;;;;8.75;6.80;;;14.80;99.90;;;;;;5009320;28;20690;-82
2022/10/03 09:07:51;;;;;;;11.13;5.38;;;14.90;99.90;;;;;;4994484;28;20175;-83
2022/10/03 09:10:31;;;;;;;10.93;5.93;;;15.00;99.90;;;;;;4994842;28;20173;-83
2022/10/03 09:13:35;;;;;;;10.40;5.40;;;15.20;99.90;;;;;;4991515;28;20180;-83
2022/10/03 09:16:39;;;;;;;14.65;5.30;;;15.30;99.90;;;;;;4986846;28;20706;-83
2022/10/03 09:19:44;;;;;;;11.52;6.15;;;15.60;99.90;;;;;;4993088;28;20173;-83
2022/10/03 09:22:41;;;;;;;13.40;5.22;;;15.20;99.90;;;;;;5008827;28;20184;-84
2022/10/03 09:25:25;;;;;;;19.02;4.55;;;15.50;99.90;;;;;;5007802;28;20270;-83
2022/10/03 09:28:09;;;;;;;8.02;4.38;;;15.80;99.90;;;;;;4993193;28;20192;-83
2022/10/03 09:31:05;;;;;;;14.13;4.55;;;16.00;99.90;;;;;;4993120;28;20662;-83
2022/10/03 09:33:50;;;;;;;15.75;4.93;;;16.20;99.90;;;;;;5006678;28;20197;-83
2022/10/03 09:36:53;;;;;;;7.72;3.70;;;16.50;99.90;;;;;;5024076;28;20693;-83
2022/10/03 09:39:24;;;;;;;14.90;3.67;;;16.50;99.90;;;;;;4991405;28;20204;-84
2022/10/03 09:42:25;;;;;;;15.88;4.13;;;16.60;99.90;;;;;;4992644;28;20173;-85
2022/10/03 09:45:14;;;;;;;8.80;4.78;;;16.30;99.90;;;;;;5007708;28;20209;-81
2022/10/03 09:47:43;;;;;;;10.35;4.20;;;16.30;99.90;;;;;;5000166;28;20176;-86
2022/10/03 09:50:37;;;;;;;15.45;4.72;;;16.60;99.90;;;;;;5028363;28;20212;-78
2022/10/03 09:53:24;;;;;;;13.63;4.65;;;16.80;99.90;;;;;;5013209;28;20192;-85
2022/10/03 09:56:08;;;;;;;11.02;4.18;;;17.00;99.90;;;;;;5028578;28;20195;-85
2022/10/03 09:58:42;;;;;;;8.10;3.20;;;17.10;99.90;;;;;;5013174;28;20653;-86
2022/10/03 10:01:51;;;;;;;6.90;3.20;;;17.10;99.90;;;;;;5028670;28;20176;-85
2022/10/03 10:04:29;;;;;;;6.68;3.17;;;17.20;99.90;;;;;;5029110;28;20187;-84
2022/10/03 10:07:21;;;;;;;12.00;2.95;;;17.30;99.90;;;;;;5013688;28;20188;-85
2022/10/03 10:10:25;;;;;;;11.50;3.17;;;17.50;99.90;;;;;;5013141;28;20167;-84
2022/10/03 10:13:15;;;;;;;10.27;3.22;;;17.60;99.90;;;;;;5013448;28;20179;-81
2022/10/03 10:15:59;;;;;;;9.63;2.78;;;17.60;99.90;;;;;;5013140;28;20235;-86
2022/10/03 10:19:22;;;;;;;3.63;2.33;;;17.60;99.90;;;;;;5013829;28;20211;-85
2022/10/03 10:22:06;;;;;;;11.02;2.47;;;17.60;99.90;;;;;;4934065;29;20546;-81
2022/10/03 10:24:35;;;;;;;12.90;3.38;;;17.50;99.90;;;;;;4933119;29;20195;-85
2022/10/03 10:27:25;;;;;;;7.72;3.40;;;17.30;99.90;;;;;;4982010;28;20195;-81
2022/10/03 10:30:16;;;;;;;10.38;3.05;;;17.30;99.90;;;;;;5013436;28;20161;-80
2022/10/03 10:33:11;;;;;;;10.52;3.40;;;17.20;99.90;;;;;;5016174;28;20176;-88
2022/10/03 10:35:50;;;;;;;9.18;2.47;;;17.40;99.90;;;;;;4987458;28;20204;-80
2022/10/03 10:38:49;;;;;;;6.60;2.22;;;17.40;99.90;;;;;;5017289;28;20171;-82
2022/10/03 10:41:32;;;;;;;7.50;2.78;;;17.40;99.90;;;;;;4986726;28;20211;-82
2022/10/03 10:44:16;;;;;;;17.23;2.75;;;17.30;99.90;;;;;;5031531;28;20176;-87
2022/10/03 10:47:12;;;;;;;7.65;2.40;;;17.40;99.90;;;;;;5032701;28;20779;-81
2022/10/03 10:49:44;;;;;;;8.35;2.20;;;17.40;99.90;;;;;;5017101;28;20239;-81
2022/10/03 10:52:20;;;;;;;5.32;2.40;;;17.60;99.90;;;;;;5019258;28;20698;-84
2022/10/03 10:55:33;;;;;;;10.60;2.47;;;17.60;99.90;;;;;;5032678;28;20211;-88
2022/10/03 10:58:24;;;;;;;8.00;2.47;;;17.60;99.90;;;;;;4956839;28;20180;-86
2022/10/03 11:01:06;;;;;;;12.77;2.70;;;17.70;99.90;;;;;;5032206;28;20172;-85
2022/10/03 11:03:59;;;;;;;12.35;2.45;;;17.90;99.90;;;;;;5016423;28;20165;-82
2022/10/03 11:25:17;;;;;;;8.73;2.17;;;18.40;99.90;;;;;;5022762;23;20233;-84
2022/10/03 11:28:01;;;;;;;20.90;2.80;;;18.40;99.90;;;;;;4996898;28;20256;-85
2022/10/03 11:31:00;;;;;;;10.75;2.47;;;18.30;99.90;;;;;;4994893;28;20205;-83
2022/10/03 11:33:50;;;;;;;4.15;2.10;;;18.20;99.90;;;;;;4994802;28;20212;-82
2022/10/03 11:36:37;;;;;;;8.15;2.03;;;18.30;99.90;;;;;;4974854;28;20554;-79
2022/10/03 11:39:05;;;;;;;20.60;4.05;;;18.40;99.90;;;;;;4981711;28;20173;-83
2022/10/03 11:41:46;;;;;;;5.30;2.05;;;18.50;99.90;;;;;;4995460;28;20208;-81
2022/10/03 11:45:01;;;;;;;21.25;2.35;;;18.50;99.90;;;;;;5011764;28;20176;-81
2022/10/03 11:47:44;;;;;;;18.98;3.60;;;18.20;99.90;;;;;;4969130;28;20197;-77
2022/10/03 11:50:24;;;;;;;8.30;2.00;;;18.10;99.90;;;;;;4994265;28;20554;-81
2022/10/03 11:53:03;;;;;;;13.05;2.47;;;18.40;99.90;;;;;;4993792;28;20181;-81
2022/10/03 11:56:02;;;;;;;25.75;3.00;;;18.40;99.90;;;;;;4975847;28;20162;-86
2022/10/03 11:58:40;;;;;;;10.98;2.08;;;18.70;99.90;;;;;;4990816;28;20206;-80
2022/10/03 12:01:33;;;;;;;9.65;2.00;;;18.80;99.90;;;;;;4991346;28;20190;-82
2022/10/03 12:04:27;;;;;;;6.57;2.15;;;18.80;99.90;;;;;;4976282;28;20257;-84
2022/10/03 12:10:38;;;;;;;15.18;2.15;;;19.20;99.90;;;;;;4976453;28;20235;-79
2022/10/03 12:13:13;;;;;;;13.68;2.20;;;19.20;99.90;;;;;;4974989;28;20246;-79
2022/10/03 12:15:53;;;;;;;9.85;2.20;;;19.00;99.90;;;;;;4975983;28;20557;-79
2022/10/03 12:18:41;;;;;;;7.60;1.98;;;19.00;99.90;;;;;;4976026;28;20261;-82
2022/10/03 12:21:15;;;;;;;15.90;2.25;;;18.80;99.90;;;;;;4990359;28;20688;-81
2022/10/03 12:24:11;;;;;;;14.23;2.28;;;18.70;99.90;;;;;;4975608;28;20198;-79
2022/10/03 12:26:53;;;;;;;9.48;2.08;;;18.80;99.90;;;;;;4975665;28;20297;-79
2022/10/03 12:29:21;;;;;;;6.63;2.45;;;18.80;99.90;;;;;;4975709;28;20162;-88
2022/10/03 12:32:15;;;;;;;6.15;1.95;;;18.80;99.90;;;;;;4976440;28;20876;-80
2022/10/03 12:34:48;;;;;;;7.70;2.05;;;18.60;99.90;;;;;;4975610;28;20197;-80
2022/10/03 12:37:23;;;;;;;9.13;2.63;;;18.70;99.90;;;;;;4975970;28;20172;-85
2022/10/03 12:39:59;;;;;;;24.58;2.88;;;18.70;99.90;;;;;;4974165;28;20175;-80
2022/10/03 12:42:56;;;;;;;6.25;1.70;;;18.50;99.90;;;;;;4975743;28;20546;-83
2022/10/03 12:45:40;;;;;;;14.77;2.53;;;18.50;99.90;;;;;;4970973;28;20597;-80
2022/10/03 12:48:41;;;;;;;9.68;1.80;;;18.70;99.90;;;;;;4975081;28;20181;-81
2022/10/03 12:51:26;;;;;;;17.63;2.83;;;18.80;99.90;;;;;;4975308;28;20194;-79
2022/10/03 12:54:04;;;;;;;19.70;2.63;;;18.70;99.90;;;;;;4975152;28;20170;-80
2022/10/03 12:56:46;;;;;;;21.30;2.53;;;18.70;99.90;;;;;;4974674;28;20173;-79
2022/10/03 12:59:19;;;;;;;8.02;1.75;;;18.70;99.90;;;;;;4975441;28;20321;-89
2022/10/03 13:02:14;;;;;;;7.15;2.05;;;18.70;99.90;;;;;;4975206;28;20182;-79
2022/10/03 13:05:07;;;;;;;7.97;2.72;;;18.70;99.90;;;;;;4975002;28;20170;-83
2022/10/03 13:07:56;;;;;;;9.45;1.73;;;18.60;99.90;;;;;;4974797;28;20225;-86
2022/10/03 13:10:30;;;;;;;9.30;1.80;;;18.80;99.90;;;;;;4974463;28;20245;-83
2022/10/03 13:13:14;;;;;;;5.68;1.70;;;18.80;99.90;;;;;;4975239;28;20197;-79
2022/10/03 13:15:48;;;;;;;5.45;1.63;;;18.80;99.90;;;;;;4975305;28;20197;-78
2022/10/03 13:18:30;;;;;;;10.63;1.90;;;19.10;99.90;;;;;;4974454;28;20177;-86
2022/10/03 13:21:17;;;;;;;7.18;1.30;;;19.40;99.90;;;;;;4974645;28;20186;-80
2022/10/03 13:24:02;;;;;;;29.00;2.85;;;19.20;99.90;;;;;;4974368;28;20196;-78
2022/10/03 13:26:38;;;;;;;9.20;2.00;;;19.40;99.90;;;;;;4974007;28;20213;-78
2022/10/03 13:29:25;;;;;;;6.32;2.13;;;19.80;99.90;;;;;;4974170;28;20572;-78
2022/10/03 13:32:11;;;;;;;9.40;2.50;;;19.90;99.90;;;;;;4998617;28;20209;-87
2022/10/03 13:34:49;;;;;;;4.88;1.63;;;19.70;99.90;;;;;;4994513;28;20602;-78
2022/10/03 13:37:24;;;;;;;5.30;1.42;;;19.80;99.90;;;;;;4993795;28;20235;-79
2022/10/03 13:39:52;;;;;;;4.97;1.38;;;19.90;99.90;;;;;;4993795;28;20176;-78
2022/10/03 13:42:38;;;;;;;5.47;1.52;;;19.60;99.90;;;;;;4992255;28;20562;-78
2022/10/03 13:45:16;;;;;;;7.40;1.35;;;19.50;99.90;;;;;;4994103;28;20196;-84
2022/10/03 13:47:43;;;;;;;4.72;1.10;;;19.80;99.90;;;;;;4997359;28;20665;-78
2022/10/03 13:50:27;;;;;;;8.52;1.67;;;20.00;99.90;;;;;;5010953;28;20212;-79
2022/10/03 13:53:22;;;;;;;3.72;1.20;;;20.20;99.90;;;;;;5009694;28;20169;-81
2022/10/03 13:55:52;;;;;;;5.45;1.65;;;20.10;99.90;;;;;;5010085;28;20169;-79
2022/10/03 13:58:43;;;;;;;5.97;1.38;;;20.40;99.90;;;;;;5005871;28;20194;-78
2022/10/03 14:01:33;;;;;;;2.33;1.27;;;20.30;99.90;;;;;;4994603;28;20196;-87
2022/10/03 14:04:13;;;;;;;6.90;1.55;;;20.40;99.90;;;;;;4993615;28;20176;-79
2022/10/03 14:06:50;;;;;;;9.05;1.42;;;20.40;99.90;;;;;;4992983;28;20710;-84
2022/10/03 14:09:41;;;;;;;4.03;1.17;;;20.20;99.90;;;;;;4993276;28;20231;-90
2022/10/03 14:12:37;;;;;;;2.90;1.33;;;20.40;99.90;;;;;;4974273;28;20222;-78
2022/10/03 14:15:30;;;;;;;4.82;1.30;;;20.40;99.90;;;;;;4973400;28;20197;-78
2022/10/03 14:18:28;;;;;;;1.48;1.15;;;20.50;99.90;;;;;;4973918;28;20682;-83
2022/10/03 14:21:31;;;;;;;6.43;1.42;;;20.40;99.90;;;;;;4974260;28;20190;-83
2022/10/03 14:24:19;;;;;;;8.88;1.23;;;20.50;99.90;;;;;;4975079;28;20200;-80
2022/10/03 14:26:52;;;;;;;3.25;1.25;;;20.60;99.90;;;;;;4973564;28;20209;-79
2022/10/03 14:29:36;;;;;;;3.03;1.40;;;20.70;99.90;;;;;;4974115;28;20177;-80
2022/10/03 14:32:22;;;;;;;10.50;1.73;;;20.70;99.90;;;;;;4973510;28;20196;-80
2022/10/03 14:34:55;;;;;;;4.75;1.30;;;20.50;99.90;;;;;;4974013;28;20661;-83
2022/10/03 14:37:34;;;;;;;9.55;2.25;;;20.50;99.90;;;;;;4972346;28;20178;-79
2022/10/03 14:40:30;;;;;;;3.15;1.40;;;20.50;99.90;;;;;;4999699;28;20252;-82
2022/10/03 14:42:55;;;;;;;13.35;1.20;;;20.60;99.90;;;;;;4992711;28;20372;-85
2022/10/03 14:45:28;;;;;;;9.18;1.30;;;20.50;99.90;;;;;;4993423;28;20290;-83
2022/10/03 14:48:04;;;;;;;4.75;1.02;;;20.20;99.90;;;;;;4992919;28;20261;-82
2022/10/03 14:50:31;;;;;;;4.78;1.20;;;20.10;99.90;;;;;;4991212;28;20208;-83
2022/10/03 14:53:23;;;;;;;5.78;1.50;;;19.90;99.90;;;;;;4993743;28;20176;-84